Time;durP1;ratioP1;P1;durP2;ratioP2;P2;SDS_P1;SDS_P2;PMS_P1;PMS_P2;Temp;Humidity;BMP_temperature;BMP_pressure;BME280_temperature;BME280_humidity;BME280_pressure;Samples;Min_cycle;Max_cycle;Signal;HPM_P1;HPM_P2
2022/09/10 00:00:39;;;;;;;16.20;10.85;;;15.00;99.90;;;;;;4986878;28;20042;-73
2022/09/10 00:03:05;;;;;;;16.80;12.20;;;14.90;99.90;;;;;;5003469;28;20050;-73
2022/09/10 00:05:38;;;;;;;12.95;11.65;;;14.90;99.90;;;;;;4981807;28;20038;-73
2022/09/10 00:08:06;;;;;;;14.68;11.77;;;15.00;99.90;;;;;;4988293;28;20494;-72
2022/09/10 00:10:37;;;;;;;20.52;11.35;;;15.00;99.90;;;;;;4991036;28;20042;-73
2022/09/10 00:13:03;;;;;;;11.50;10.40;;;15.00;99.90;;;;;;4988813;28;20066;-73
2022/09/10 00:15:28;;;;;;;12.48;10.82;;;15.00;99.90;;;;;;4987260;28;20073;-71
2022/09/10 00:17:54;;;;;;;14.45;11.52;;;15.00;99.90;;;;;;4986172;28;20054;-73
2022/09/10 00:20:19;;;;;;;12.70;11.45;;;15.00;99.90;;;;;;4985812;28;20080;-73
2022/09/10 00:22:45;;;;;;;14.45;12.93;;;15.00;99.90;;;;;;4989859;28;20050;-72
2022/09/10 00:25:11;;;;;;;13.40;12.05;;;15.00;99.90;;;;;;4982884;28;20495;-73
2022/09/10 00:27:37;;;;;;;13.55;11.25;;;15.10;99.90;;;;;;4988307;28;20066;-73
2022/09/10 00:30:03;;;;;;;16.77;13.05;;;15.00;99.90;;;;;;4988659;28;20046;-73
2022/09/10 00:32:28;;;;;;;14.18;12.38;;;15.00;99.90;;;;;;4990250;28;20046;-72
2022/09/10 00:34:54;;;;;;;13.38;12.05;;;15.00;99.90;;;;;;4983880;28;20053;-73
2022/09/10 00:37:20;;;;;;;14.18;12.77;;;15.00;99.90;;;;;;4986397;28;20171;-73
2022/09/10 00:39:46;;;;;;;16.45;12.90;;;15.00;99.90;;;;;;4985681;28;20622;-72
2022/09/10 00:42:12;;;;;;;17.98;13.30;;;15.00;99.90;;;;;;4960799;28;20130;-73
2022/09/10 00:44:40;;;;;;;16.52;13.30;;;15.00;99.90;;;;;;4989780;28;20042;-73
2022/09/10 00:47:20;;;;;;;14.30;12.60;;;15.00;99.90;;;;;;4989756;28;20049;-72
2022/09/10 00:49:50;;;;;;;14.80;13.30;;;15.00;99.90;;;;;;4988443;28;20104;-72
2022/09/10 00:52:17;;;;;;;17.60;14.07;;;15.00;99.90;;;;;;4980809;28;20046;-73
2022/09/10 00:54:45;;;;;;;15.07;13.55;;;15.00;99.90;;;;;;4989621;28;20038;-73
2022/09/10 00:57:17;;;;;;;15.70;13.13;;;15.00;99.90;;;;;;4989660;28;20065;-73
2022/09/10 00:59:48;;;;;;;17.52;13.32;;;15.00;99.90;;;;;;4990610;28;20062;-73
2022/09/10 01:02:14;;;;;;;15.37;12.90;;;15.00;99.90;;;;;;4982597;28;20046;-73
2022/09/10 01:04:41;;;;;;;17.50;13.85;;;15.00;99.90;;;;;;4990192;28;20169;-73
2022/09/10 01:07:09;;;;;;;14.45;12.98;;;15.00;99.90;;;;;;4988895;28;20042;-73
2022/09/10 01:09:36;;;;;;;15.80;13.50;;;15.00;99.90;;;;;;4989089;28;20073;-73
2022/09/10 01:12:30;;;;;;;15.50;13.95;;;15.00;99.90;;;;;;4990223;28;20046;-73
2022/09/10 01:15:24;;;;;;;15.93;13.63;;;15.00;99.90;;;;;;4987945;28;20053;-72
2022/09/10 01:18:29;;;;;;;17.73;15.13;;;15.00;99.90;;;;;;4981283;28;20038;-72
2022/09/10 01:21:16;;;;;;;18.52;16.20;;;15.00;99.90;;;;;;4976106;28;20081;-72
2022/09/10 01:24:22;;;;;;;20.08;14.73;;;15.10;99.90;;;;;;4973576;28;20050;-71
2022/09/10 01:27:25;;;;;;;16.88;15.10;;;15.10;99.90;;;;;;4982842;28;20072;-73
2022/09/10 01:29:58;;;;;;;15.68;13.93;;;15.10;99.90;;;;;;4986950;28;20053;-73
2022/09/10 01:32:47;;;;;;;17.20;14.32;;;15.10;99.90;;;;;;4986787;28;20126;-73
2022/09/10 01:35:18;;;;;;;19.15;15.60;;;15.20;99.90;;;;;;4989640;28;20030;-73
2022/09/10 01:37:56;;;;;;;17.33;15.63;;;15.30;99.90;;;;;;4973076;28;20100;-73
2022/09/10 01:40:28;;;;;;;18.88;15.73;;;15.30;99.90;;;;;;4987032;28;20047;-73
2022/09/10 01:43:00;;;;;;;17.95;15.23;;;15.30;99.90;;;;;;4978061;28;20045;-73
2022/09/10 01:45:27;;;;;;;18.70;14.77;;;15.30;99.90;;;;;;4988931;28;20043;-73
2022/09/10 01:48:08;;;;;;;16.33;14.57;;;15.30;99.90;;;;;;4986544;28;20031;-73
2022/09/10 01:50:52;;;;;;;15.48;13.98;;;15.30;99.90;;;;;;4986096;28;20030;-73
2022/09/10 01:53:54;;;;;;;15.63;14.02;;;15.40;99.90;;;;;;4985498;28;20060;-73
2022/09/10 01:56:49;;;;;;;17.30;15.02;;;15.40;99.90;;;;;;5004407;28;20042;-73
2022/09/10 01:59:33;;;;;;;17.10;14.80;;;15.40;99.90;;;;;;4978547;28;20046;-72
2022/09/10 02:02:12;;;;;;;17.65;15.35;;;15.40;99.90;;;;;;4983778;28;20178;-73
2022/09/10 02:04:39;;;;;;;17.50;14.35;;;15.50;99.90;;;;;;4975805;28;20406;-73
2022/09/10 02:07:06;;;;;;;16.67;14.52;;;15.50;99.90;;;;;;4990022;28;20054;-73
2022/09/10 02:09:32;;;;;;;21.65;14.90;;;15.40;99.90;;;;;;4987389;28;20035;-73
2022/09/10 02:11:58;;;;;;;21.60;15.95;;;15.50;99.90;;;;;;4976661;28;20047;-73
2022/09/10 02:14:24;;;;;;;18.45;15.63;;;15.50;99.90;;;;;;4983441;28;20042;-73
2022/09/10 02:16:57;;;;;;;17.92;15.90;;;15.50;99.90;;;;;;4990056;28;20490;-70
2022/09/10 02:19:25;;;;;;;20.60;16.15;;;15.40;99.90;;;;;;4995174;28;20042;-73
2022/09/10 02:21:52;;;;;;;18.13;15.90;;;15.50;99.90;;;;;;4985256;28;20051;-73
2022/09/10 02:24:18;;;;;;;20.23;15.68;;;15.50;99.90;;;;;;4991608;28;20049;-73
2022/09/10 02:26:46;;;;;;;18.63;16.58;;;15.40;99.90;;;;;;4990654;28;20069;-73
2022/09/10 02:29:14;;;;;;;17.85;15.90;;;15.50;99.90;;;;;;4993018;28;20517;-73
2022/09/10 02:31:40;;;;;;;17.60;15.68;;;15.50;99.90;;;;;;4985654;28;20053;-73
2022/09/10 02:34:06;;;;;;;16.35;14.30;;;15.50;99.90;;;;;;4990190;28;20050;-73
2022/09/10 02:36:34;;;;;;;20.60;16.40;;;15.50;99.90;;;;;;4977686;28;20039;-73
2022/09/10 02:39:02;;;;;;;20.00;15.25;;;15.50;99.90;;;;;;4989025;28;20041;-73
2022/09/10 02:41:30;;;;;;;16.45;14.68;;;15.50;99.90;;;;;;5008784;28;20064;-72
2022/09/10 02:43:56;;;;;;;17.63;15.02;;;15.50;99.90;;;;;;4989956;28;20125;-72
2022/09/10 02:46:22;;;;;;;17.67;15.77;;;15.50;99.90;;;;;;4988393;28;20129;-73
2022/09/10 02:48:47;;;;;;;16.90;15.13;;;15.60;99.90;;;;;;4975529;28;20038;-73
2022/09/10 02:51:13;;;;;;;18.40;15.27;;;15.60;99.90;;;;;;4969429;28;20473;-73
2022/09/10 02:53:38;;;;;;;18.75;15.25;;;15.50;99.90;;;;;;4972959;28;20042;-72
2022/09/10 02:56:06;;;;;;;19.35;15.23;;;15.60;99.90;;;;;;4989140;28;20401;-73
2022/09/10 02:58:32;;;;;;;21.98;15.63;;;15.50;99.90;;;;;;4980192;28;20112;-73
2022/09/10 03:01:10;;;;;;;22.27;14.90;;;15.50;99.90;;;;;;4984945;28;20046;-73
2022/09/10 03:03:36;;;;;;;18.67;15.05;;;15.50;99.90;;;;;;4979078;28;20055;-73
2022/09/10 03:06:03;;;;;;;19.10;15.48;;;15.50;99.90;;;;;;4990020;28;20070;-73
2022/09/10 03:08:29;;;;;;;19.63;15.77;;;15.50;99.90;;;;;;4988989;28;20129;-73
2022/09/10 03:10:55;;;;;;;18.17;16.05;;;15.50;99.90;;;;;;4992013;28;20043;-73
2022/09/10 03:13:20;;;;;;;21.42;16.65;;;15.50;99.90;;;;;;4992436;28;20038;-73
2022/09/10 03:15:46;;;;;;;23.90;17.50;;;15.40;99.90;;;;;;4989347;28;20426;-73
2022/09/10 03:18:12;;;;;;;21.00;16.67;;;15.40;99.90;;;;;;4992164;28;20076;-73
2022/09/10 03:20:39;;;;;;;25.33;17.75;;;15.40;99.90;;;;;;4986524;28;20442;-73
2022/09/10 03:23:04;;;;;;;20.70;17.77;;;15.40;99.90;;;;;;4982976;28;20038;-73
2022/09/10 03:25:30;;;;;;;24.40;17.23;;;15.40;99.90;;;;;;4984925;28;20221;-73
2022/09/10 03:27:55;;;;;;;23.15;17.90;;;15.40;99.90;;;;;;4986186;28;20070;-72
2022/09/10 03:30:21;;;;;;;22.98;17.25;;;15.40;99.90;;;;;;4987708;28;20116;-73
2022/09/10 03:32:48;;;;;;;23.77;18.33;;;15.40;99.90;;;;;;4985714;28;20121;-73
2022/09/10 03:35:15;;;;;;;23.85;17.88;;;15.40;99.90;;;;;;4976072;28;20043;-73
2022/09/10 03:37:43;;;;;;;26.30;19.10;;;15.40;99.90;;;;;;4990080;28;20044;-73
2022/09/10 03:40:09;;;;;;;26.52;18.90;;;15.40;99.90;;;;;;4981631;28;20039;-73
2022/09/10 03:42:35;;;;;;;20.85;18.00;;;15.40;99.90;;;;;;4982878;28;20066;-73
2022/09/10 03:45:01;;;;;;;24.70;18.20;;;15.40;99.90;;;;;;4991382;28;20125;-73
2022/09/10 03:47:27;;;;;;;24.30;18.27;;;15.40;99.90;;;;;;4988620;28;20128;-73
2022/09/10 03:49:52;;;;;;;26.52;19.00;;;15.40;99.90;;;;;;4991297;28;20042;-73
2022/09/10 03:52:21;;;;;;;22.67;18.95;;;15.50;99.90;;;;;;4990790;28;20100;-72
2022/09/10 03:54:48;;;;;;;22.05;17.98;;;15.40;99.90;;;;;;4984271;28;20034;-73
2022/09/10 03:57:14;;;;;;;22.50;18.17;;;15.40;99.90;;;;;;4985879;28;20038;-72
2022/09/10 03:59:40;;;;;;;27.13;19.05;;;15.50;99.90;;;;;;4990870;28;20045;-73
2022/09/10 04:02:08;;;;;;;21.88;18.38;;;15.50;99.90;;;;;;4982666;28;20141;-73
2022/09/10 04:04:36;;;;;;;22.60;18.65;;;15.50;99.90;;;;;;4990587;28;20069;-73
2022/09/10 04:07:05;;;;;;;23.48;18.38;;;15.50;99.90;;;;;;4988443;28;20049;-73
2022/09/10 04:09:31;;;;;;;25.35;18.60;;;15.50;99.90;;;;;;4987636;28;20050;-73
2022/09/10 04:11:58;;;;;;;20.92;17.63;;;15.50;99.90;;;;;;4988879;28;20109;-72
2022/09/10 04:14:25;;;;;;;24.02;18.15;;;15.50;99.90;;;;;;4990990;28;20108;-73
2022/09/10 04:16:51;;;;;;;23.85;17.95;;;15.50;99.90;;;;;;4980133;28;20038;-71
2022/09/10 04:19:17;;;;;;;25.95;18.95;;;15.50;99.90;;;;;;4988077;28;20136;-73
2022/09/10 04:21:42;;;;;;;25.17;18.45;;;15.60;99.90;;;;;;4991024;28;20089;-73
2022/09/10 04:24:11;;;;;;;23.05;18.02;;;15.50;99.90;;;;;;4983235;28;20046;-73
2022/09/10 04:26:37;;;;;;;25.63;17.55;;;15.50;99.90;;;;;;4983649;28;20054;-73
2022/09/10 04:29:02;;;;;;;32.45;17.67;;;15.60;99.90;;;;;;4990870;28;20050;-73
2022/09/10 04:31:28;;;;;;;22.98;17.75;;;15.50;99.90;;;;;;4985372;28;20169;-73
2022/09/10 04:33:54;;;;;;;22.80;17.90;;;15.60;99.90;;;;;;4988031;28;20078;-74
2022/09/10 04:36:19;;;;;;;28.23;17.85;;;15.60;99.90;;;;;;4981887;28;20042;-73
2022/09/10 04:38:45;;;;;;;22.42;18.02;;;15.60;99.90;;;;;;4990223;28;20042;-73
2022/09/10 04:41:14;;;;;;;26.08;17.50;;;15.50;99.90;;;;;;5005670;28;20129;-73
2022/09/10 04:43:40;;;;;;;22.10;17.10;;;15.60;99.90;;;;;;4988295;28;20056;-73
2022/09/10 04:46:06;;;;;;;27.17;18.40;;;15.60;99.90;;;;;;4990165;28;20115;-72
2022/09/10 04:48:32;;;;;;;29.45;17.38;;;15.60;99.90;;;;;;4989618;28;20038;-73
2022/09/10 04:50:58;;;;;;;27.40;18.48;;;15.60;99.90;;;;;;4988763;28;20104;-71
2022/09/10 04:53:26;;;;;;;28.25;17.73;;;15.60;99.90;;;;;;4990050;28;20085;-73
2022/09/10 04:55:53;;;;;;;28.25;18.35;;;15.60;99.90;;;;;;4989332;28;20054;-71
2022/09/10 04:58:20;;;;;;;32.97;19.33;;;15.60;99.90;;;;;;4985470;28;20085;-73
2022/09/10 05:00:46;;;;;;;31.30;18.85;;;15.60;99.90;;;;;;4987076;28;20046;-73
2022/09/10 05:03:13;;;;;;;28.80;18.80;;;15.60;99.90;;;;;;4990110;28;20049;-73
2022/09/10 05:05:41;;;;;;;28.58;19.33;;;15.60;99.90;;;;;;4988628;28;20035;-73
2022/09/10 05:08:07;;;;;;;32.05;19.85;;;15.70;99.90;;;;;;4989687;28;20088;-73
2022/09/10 05:10:34;;;;;;;27.25;19.48;;;15.60;99.90;;;;;;4991395;28;20030;-73
2022/09/10 05:13:00;;;;;;;29.75;20.13;;;15.60;99.90;;;;;;4992176;28;20046;-72
2022/09/10 05:15:26;;;;;;;29.52;20.27;;;15.60;99.90;;;;;;4986824;28;20050;-73
2022/09/10 05:17:52;;;;;;;32.25;21.48;;;15.60;99.90;;;;;;4986679;28;20092;-73
2022/09/10 05:20:18;;;;;;;41.38;21.13;;;15.60;99.90;;;;;;4983891;28;20046;-73
2022/09/10 05:22:43;;;;;;;40.22;22.15;;;15.60;99.90;;;;;;4964930;28;20051;-73
2022/09/10 05:25:09;;;;;;;32.70;21.58;;;15.60;99.90;;;;;;4982857;28;20073;-73
2022/09/10 05:27:35;;;;;;;32.10;21.23;;;15.70;99.90;;;;;;4988920;28;20097;-72
2022/09/10 05:30:01;;;;;;;34.72;21.27;;;15.70;99.90;;;;;;4992239;28;20096;-72
2022/09/10 05:32:27;;;;;;;32.42;22.77;;;15.70;99.90;;;;;;4982999;28;20043;-72
2022/09/10 05:34:53;;;;;;;37.42;22.33;;;15.70;99.90;;;;;;4990352;28;20121;-72
2022/09/10 05:37:19;;;;;;;35.67;22.83;;;15.70;99.90;;;;;;4987465;28;20185;-73
2022/09/10 05:39:47;;;;;;;39.78;23.98;;;15.70;99.90;;;;;;4989553;28;20074;-73
2022/09/10 05:42:13;;;;;;;32.67;22.08;;;15.70;99.90;;;;;;4992058;28;20414;-71
2022/09/10 05:44:40;;;;;;;36.13;23.40;;;15.70;99.90;;;;;;4986084;28;20411;-70
2022/09/10 05:47:06;;;;;;;32.78;22.80;;;15.70;99.90;;;;;;4993299;28;20479;-73
2022/09/10 05:49:32;;;;;;;40.25;23.75;;;15.70;99.90;;;;;;4993678;28;20495;-73
2022/09/10 05:51:57;;;;;;;39.03;23.58;;;15.80;99.90;;;;;;4993255;28;20026;-71
2022/09/10 05:54:23;;;;;;;37.90;25.27;;;15.80;99.90;;;;;;4990583;28;20053;-71
2022/09/10 05:56:49;;;;;;;37.00;24.73;;;15.80;99.90;;;;;;4983477;28;20030;-73
2022/09/10 05:59:14;;;;;;;42.55;25.33;;;15.80;99.90;;;;;;4990870;28;20178;-73
2022/09/10 06:01:40;;;;;;;46.53;24.77;;;15.80;99.90;;;;;;4992376;28;20053;-73
2022/09/10 06:04:06;;;;;;;37.88;23.55;;;15.90;99.90;;;;;;4990332;28;20061;-72
2022/09/10 06:06:31;;;;;;;40.53;24.90;;;15.90;99.90;;;;;;5002156;28;20513;-73
2022/09/10 06:08:57;;;;;;;42.55;25.25;;;15.90;99.90;;;;;;4986751;28;20684;-73
2022/09/10 06:11:23;;;;;;;41.10;23.73;;;15.90;99.90;;;;;;4977080;28;20125;-73
2022/09/10 06:13:49;;;;;;;31.67;23.02;;;15.90;99.90;;;;;;4990183;28;20494;-73
2022/09/10 06:16:15;;;;;;;40.10;24.00;;;16.00;99.90;;;;;;4988472;28;20050;-73
2022/09/10 06:18:41;;;;;;;31.40;23.13;;;16.10;99.90;;;;;;4985110;28;20042;-73
2022/09/10 06:21:16;;;;;;;33.72;23.00;;;16.10;99.90;;;;;;4992900;28;20052;-73
2022/09/10 06:23:43;;;;;;;35.97;24.02;;;16.10;99.90;;;;;;4985619;28;20042;-71
2022/09/10 06:26:15;;;;;;;35.47;24.27;;;16.10;99.90;;;;;;4992647;28;20046;-73
2022/09/10 06:28:42;;;;;;;31.80;22.65;;;16.20;99.90;;;;;;4992879;28;20093;-73
2022/09/10 06:31:12;;;;;;;36.03;22.92;;;16.20;99.90;;;;;;4994092;28;20109;-73
2022/09/10 06:33:38;;;;;;;36.60;22.40;;;16.30;99.90;;;;;;4984275;28;20056;-73
2022/09/10 06:36:04;;;;;;;33.10;23.10;;;16.30;99.90;;;;;;4987218;28;20873;-73
2022/09/10 06:38:35;;;;;;;36.67;21.98;;;16.40;99.90;;;;;;4992508;28;20615;-73
2022/09/10 06:41:04;;;;;;;35.83;22.52;;;16.50;99.90;;;;;;4990648;28;20044;-72
2022/09/10 06:43:35;;;;;;;35.38;22.30;;;16.50;99.90;;;;;;4990535;28;20765;-72
2022/09/10 06:46:04;;;;;;;30.45;21.85;;;16.50;99.90;;;;;;4967906;28;20759;-73
2022/09/10 06:48:30;;;;;;;32.88;21.58;;;16.50;99.90;;;;;;4990824;28;20058;-73
2022/09/10 06:51:00;;;;;;;37.25;21.58;;;16.60;99.90;;;;;;4991460;28;20050;-73
2022/09/10 06:53:32;;;;;;;35.08;22.00;;;16.60;99.90;;;;;;4991682;28;20053;-72
2022/09/10 06:55:59;;;;;;;30.67;19.95;;;16.60;99.90;;;;;;4991421;28;20048;-72
2022/09/10 06:58:27;;;;;;;30.27;21.33;;;16.60;99.90;;;;;;4990248;28;20050;-72
2022/09/10 07:00:53;;;;;;;30.98;20.80;;;16.70;99.90;;;;;;4989459;28;20105;-72
2022/09/10 07:03:20;;;;;;;29.92;20.50;;;16.70;99.90;;;;;;4988780;28;20054;-72
2022/09/10 07:05:46;;;;;;;35.47;20.65;;;16.70;99.90;;;;;;4987933;28;20093;-72
2022/09/10 07:08:14;;;;;;;35.67;22.40;;;16.70;99.90;;;;;;4989442;28;20442;-72
2022/09/10 07:10:43;;;;;;;29.73;18.27;;;16.70;99.90;;;;;;4991392;28;20112;-73
2022/09/10 07:13:10;;;;;;;28.05;19.85;;;16.80;99.90;;;;;;5007935;28;20089;-72
2022/09/10 07:15:36;;;;;;;32.80;20.30;;;16.80;99.90;;;;;;4975935;28;20034;-73
2022/09/10 07:18:02;;;;;;;28.40;19.30;;;16.80;99.90;;;;;;4981880;28;20058;-73
2022/09/10 07:20:29;;;;;;;24.95;18.67;;;16.90;99.90;;;;;;4992154;28;20038;-73
2022/09/10 07:22:55;;;;;;;26.75;18.80;;;16.90;99.90;;;;;;4989690;28;20394;-73
2022/09/10 07:25:22;;;;;;;27.45;18.15;;;17.00;99.90;;;;;;4989652;28;20042;-72
2022/09/10 07:27:49;;;;;;;28.63;18.33;;;17.00;99.90;;;;;;4994916;28;20490;-74
2022/09/10 07:30:15;;;;;;;25.33;18.65;;;17.00;99.90;;;;;;4978455;28;20057;-73
2022/09/10 07:32:42;;;;;;;24.35;17.40;;;17.10;99.90;;;;;;4992810;28;20113;-73
2022/09/10 07:35:08;;;;;;;24.38;18.33;;;17.10;99.90;;;;;;4989226;28;20030;-73
2022/09/10 07:37:34;;;;;;;27.90;17.80;;;17.10;99.90;;;;;;4998572;28;20065;-73
2022/09/10 07:39:59;;;;;;;24.05;17.55;;;17.10;99.90;;;;;;4984996;28;20112;-73
2022/09/10 07:42:25;;;;;;;27.17;17.75;;;17.10;99.90;;;;;;4985505;28;20129;-73
2022/09/10 07:44:51;;;;;;;23.45;16.88;;;17.20;99.90;;;;;;4985407;28;20137;-74
2022/09/10 07:47:17;;;;;;;25.15;16.88;;;17.20;99.90;;;;;;4986945;28;20042;-75
2022/09/10 07:49:46;;;;;;;24.13;16.65;;;17.20;99.90;;;;;;4986427;28;20064;-74
2022/09/10 07:52:12;;;;;;;24.58;17.55;;;17.30;99.90;;;;;;4987177;28;20463;-73
2022/09/10 07:54:38;;;;;;;21.55;16.77;;;17.20;99.90;;;;;;4969030;28;20034;-73
2022/09/10 07:57:04;;;;;;;20.80;16.10;;;17.30;99.90;;;;;;4983724;28;20038;-74
2022/09/10 07:59:30;;;;;;;23.08;16.33;;;17.40;99.90;;;;;;4984377;28;20046;-74
2022/09/10 08:02:00;;;;;;;23.38;17.83;;;17.40;99.90;;;;;;4985558;28;20406;-74
2022/09/10 08:04:28;;;;;;;24.85;17.50;;;17.40;99.90;;;;;;4982463;28;20054;-73
2022/09/10 08:06:54;;;;;;;24.08;16.40;;;17.40;99.90;;;;;;4981645;28;20046;-74
2022/09/10 08:09:19;;;;;;;24.70;16.80;;;17.40;99.90;;;;;;4984538;28;20034;-74
2022/09/10 08:11:45;;;;;;;23.50;17.70;;;17.50;99.90;;;;;;4983150;28;20050;-74
2022/09/10 08:14:12;;;;;;;27.27;17.67;;;17.50;99.90;;;;;;4982480;28;20435;-74
2022/09/10 08:32:42;;;;;;;16.90;13.25;;;17.90;99.90;;;;;;5013824;22;20127;-74
2022/09/10 08:35:08;;;;;;;17.25;12.35;;;18.10;99.90;;;;;;4989865;28;20096;-73
2022/09/10 08:37:33;;;;;;;21.30;13.40;;;18.10;99.90;;;;;;4989899;28;20488;-73
2022/09/10 08:39:59;;;;;;;17.35;12.77;;;18.20;99.90;;;;;;4988179;28;21730;-73
2022/09/10 08:42:35;;;;;;;12.32;10.50;;;18.20;99.90;;;;;;4988681;28;20753;-73
2022/09/10 08:45:07;;;;;;;14.40;9.88;;;18.20;99.90;;;;;;5064473;23;20058;-75
2022/09/10 08:47:57;;;;;;;13.18;9.93;;;18.30;99.90;;;;;;4982132;28;20038;-75
2022/09/10 08:50:45;;;;;;;13.77;9.88;;;18.40;99.90;;;;;;4989955;28;20038;-75
2022/09/10 08:53:40;;;;;;;13.82;8.95;;;18.50;99.90;;;;;;4987416;28;20046;-73
2022/09/10 08:56:14;;;;;;;14.30;8.88;;;18.50;99.90;;;;;;4986418;28;20034;-74
2022/09/10 08:58:58;;;;;;;12.75;10.45;;;18.60;99.90;;;;;;4987485;28;20038;-75
2022/09/10 09:01:43;;;;;;;14.88;10.95;;;18.60;99.90;;;;;;4985307;28;20038;-75
2022/09/10 09:04:41;;;;;;;14.35;10.60;;;18.60;99.90;;;;;;4973160;28;20038;-76
2022/09/10 09:07:18;;;;;;;14.75;10.05;;;18.60;99.90;;;;;;4989775;28;20074;-76
2022/09/10 09:09:50;;;;;;;10.85;9.75;;;18.70;99.90;;;;;;4973277;28;20065;-74
2022/09/10 09:12:44;;;;;;;13.00;8.73;;;18.70;99.90;;;;;;4990796;28;20093;-75
2022/09/10 09:15:12;;;;;;;13.27;9.90;;;18.80;99.90;;;;;;4974688;28;20032;-76
2022/09/10 09:17:50;;;;;;;15.88;10.45;;;18.90;99.90;;;;;;4991966;28;20042;-74
2022/09/10 09:20:36;;;;;;;11.80;8.43;;;19.00;99.90;;;;;;4988387;28;20042;-75
2022/09/10 09:30:49;;;;;;;14.40;7.20;;;19.50;99.90;;;;;;5032853;23;20446;-73
2022/09/10 09:33:19;;;;;;;10.45;6.53;;;19.50;99.90;;;;;;4977893;28;20513;-73
2022/09/10 09:35:59;;;;;;;10.23;5.68;;;19.60;99.90;;;;;;4971546;28;20051;-76
2022/09/10 09:38:43;;;;;;;8.00;5.65;;;19.70;99.90;;;;;;4969054;28;20046;-74
2022/09/10 09:41:32;;;;;;;11.95;6.85;;;19.80;99.90;;;;;;4974430;28;20064;-71
2022/09/10 09:44:10;;;;;;;9.88;6.53;;;19.80;99.90;;;;;;4966638;28;20956;-73
2022/09/10 09:46:37;;;;;;;9.15;6.38;;;19.90;99.90;;;;;;4973722;28;21077;-75
2022/09/10 09:49:03;;;;;;;8.52;5.82;;;20.10;99.90;;;;;;4967291;28;20105;-75
2022/09/10 09:51:34;;;;;;;7.55;5.35;;;20.20;99.90;;;;;;4972294;28;20066;-75
2022/09/10 09:54:07;;;;;;;8.77;4.97;;;20.30;99.90;;;;;;4973566;28;20038;-75
2022/09/10 09:56:41;;;;;;;6.30;4.55;;;20.40;99.90;;;;;;4970849;28;20045;-73
2022/09/10 09:59:35;;;;;;;8.63;5.50;;;20.40;99.90;;;;;;4976796;28;20043;-73
2022/09/10 10:02:22;;;;;;;8.88;5.32;;;20.40;99.90;;;;;;4992294;28;20141;-74
2022/09/10 10:05:24;;;;;;;8.75;6.18;;;20.30;99.90;;;;;;4973104;28;20146;-74
2022/09/10 10:07:49;;;;;;;7.72;5.18;;;20.30;99.90;;;;;;4968320;28;20674;-74
2022/09/10 10:10:26;;;;;;;7.53;4.97;;;20.30;99.90;;;;;;4966524;28;20046;-74
2022/09/10 10:12:54;;;;;;;6.72;4.95;;;20.30;99.90;;;;;;4971407;28;20192;-74
2022/09/10 10:15:41;;;;;;;6.95;4.90;;;20.30;99.90;;;;;;4969962;28;20149;-74
2022/09/10 10:18:21;;;;;;;10.63;5.70;;;20.30;99.90;;;;;;4968544;28;20490;-74
2022/09/10 10:21:07;;;;;;;8.05;5.65;;;20.30;99.90;;;;;;4987589;28;20511;-74
2022/09/10 10:23:36;;;;;;;8.20;4.97;;;20.30;99.90;;;;;;4970496;28;20426;-74
2022/09/10 10:26:20;;;;;;;8.43;5.45;;;20.30;99.90;;;;;;4969610;28;20581;-74
2022/09/10 10:28:52;;;;;;;7.88;5.80;;;20.40;99.90;;;;;;4968767;28;20134;-73
2022/09/10 10:31:18;;;;;;;6.70;5.38;;;20.40;99.90;;;;;;4971860;28;20050;-73
2022/09/10 10:34:04;;;;;;;9.57;5.57;;;20.50;99.90;;;;;;4968874;28;20129;-73
2022/09/10 10:37:04;;;;;;;10.00;5.25;;;20.50;99.90;;;;;;4966130;28;20050;-73
2022/09/10 10:39:42;;;;;;;6.15;5.28;;;20.60;99.90;;;;;;4970046;28;20055;-73
2022/09/10 10:42:24;;;;;;;8.32;5.65;;;20.70;99.90;;;;;;4988178;28;20105;-73
2022/09/10 10:45:00;;;;;;;8.23;5.72;;;20.80;99.90;;;;;;4973073;28;20131;-73
2022/09/10 10:47:59;;;;;;;8.38;5.53;;;20.90;99.90;;;;;;4972223;28;20049;-74
2022/09/10 10:50:35;;;;;;;8.50;5.45;;;21.00;99.90;;;;;;4970956;28;20049;-72
2022/09/10 10:53:17;;;;;;;9.30;5.97;;;21.10;99.90;;;;;;4970004;28;20042;-72
2022/09/10 10:55:51;;;;;;;7.63;5.13;;;21.10;99.90;;;;;;4973398;28;20050;-72
2022/09/10 10:58:43;;;;;;;8.05;5.40;;;21.20;99.90;;;;;;4986508;28;20301;-72
2022/09/10 11:01:28;;;;;;;7.97;5.80;;;21.40;99.90;;;;;;4974037;28;20034;-72
2022/09/10 11:04:18;;;;;;;7.38;5.40;;;21.70;99.90;;;;;;4967963;28;20046;-72
2022/09/10 11:07:28;;;;;;;8.88;5.57;;;21.90;99.90;;;;;;4962360;28;20050;-72
2022/09/10 11:09:54;;;;;;;7.30;6.07;;;22.10;99.90;;;;;;4970680;28;20039;-72
2022/09/10 11:12:52;;;;;;;8.10;5.50;;;22.20;99.90;;;;;;4973339;28;20415;-73
2022/09/10 11:15:37;;;;;;;8.80;4.70;;;22.30;99.90;;;;;;4972001;28;20526;-72
2022/09/10 11:18:26;;;;;;;6.35;5.05;;;22.40;99.90;;;;;;4971315;28;20054;-72
2022/09/10 11:20:57;;;;;;;10.27;5.40;;;22.60;99.90;;;;;;4974287;28;20045;-73
2022/09/10 11:23:28;;;;;;;8.23;5.90;;;22.70;99.90;;;;;;4972076;28;20042;-72
2022/09/10 11:26:05;;;;;;;8.27;5.33;;;22.80;99.90;;;;;;4971593;28;20315;-72
2022/09/10 11:28:53;;;;;;;7.53;5.32;;;22.80;99.90;;;;;;4984009;28;20369;-73
2022/09/10 11:31:42;;;;;;;7.45;4.80;;;22.80;99.90;;;;;;4970313;28;20046;-74
2022/09/10 11:34:26;;;;;;;6.57;4.97;;;22.80;99.90;;;;;;4985373;28;20077;-74
2022/09/10 11:37:02;;;;;;;7.70;4.90;;;22.80;99.90;;;;;;4974817;28;20054;-74
2022/09/10 11:39:37;;;;;;;8.93;5.35;;;22.80;99.90;;;;;;4968016;28;20051;-72
2022/09/10 11:42:16;;;;;;;9.35;5.47;;;22.80;99.90;;;;;;4965751;28;20054;-75
2022/09/10 11:45:18;;;;;;;9.57;5.63;;;22.70;99.90;;;;;;4967764;28;20105;-74
2022/09/10 11:47:59;;;;;;;9.80;5.45;;;22.60;99.90;;;;;;4970888;28;20577;-74
2022/09/10 11:50:49;;;;;;;7.15;5.03;;;22.50;99.90;;;;;;4967151;28;20047;-74
2022/09/10 11:53:18;;;;;;;7.78;4.68;;;22.30;99.90;;;;;;4968593;28;20418;-75
2022/09/10 11:56:19;;;;;;;7.80;4.70;;;22.20;99.90;;;;;;4968069;28;20042;-74
2022/09/10 11:59:05;;;;;;;7.35;4.65;;;22.20;99.90;;;;;;4969483;28;20070;-72
2022/09/10 12:01:45;;;;;;;7.40;5.05;;;22.20;99.90;;;;;;4963897;28;20568;-72
2022/09/10 12:04:28;;;;;;;7.97;4.70;;;22.20;99.90;;;;;;4968644;28;20081;-72
2022/09/10 12:07:14;;;;;;;5.88;4.35;;;22.20;99.90;;;;;;4962828;28;20046;-73
2022/09/10 12:09:57;;;;;;;6.20;4.30;;;22.40;99.90;;;;;;4963340;28;20388;-73
2022/09/10 12:12:42;;;;;;;6.03;3.65;;;22.40;99.90;;;;;;4966852;28;20553;-73
2022/09/10 12:15:18;;;;;;;8.05;3.70;;;22.60;99.90;;;;;;4967336;28;20133;-73
2022/09/10 12:17:53;;;;;;;6.32;4.50;;;22.70;99.90;;;;;;4972050;28;20143;-73
2022/09/10 12:20:29;;;;;;;5.60;4.05;;;22.90;99.90;;;;;;4971882;28;20797;-74
2022/09/10 12:22:55;;;;;;;6.47;3.55;;;22.90;99.90;;;;;;4971151;28;20133;-74
2022/09/10 12:25:20;;;;;;;7.70;4.75;;;23.00;99.90;;;;;;4984435;28;20050;-73
2022/09/10 12:27:57;;;;;;;7.00;4.65;;;23.10;99.90;;;;;;4970235;28;20038;-73
2022/09/10 12:30:26;;;;;;;7.72;4.25;;;23.10;99.90;;;;;;4969953;28;20041;-73
2022/09/10 12:32:53;;;;;;;8.02;4.05;;;23.10;99.90;;;;;;4968989;28;20070;-73
2022/09/10 12:35:34;;;;;;;6.30;4.07;;;23.00;99.90;;;;;;4971384;28;20058;-73
2022/09/10 12:38:40;;;;;;;5.03;3.42;;;23.00;99.90;;;;;;4989709;28;20058;-74
2022/09/10 12:41:13;;;;;;;6.07;3.72;;;23.00;99.90;;;;;;4969679;28;20100;-73
2022/09/10 12:43:39;;;;;;;5.43;3.47;;;23.10;99.90;;;;;;4968547;28;20062;-73
2022/09/10 12:46:07;;;;;;;7.32;3.70;;;23.20;99.90;;;;;;4972415;28;20069;-73
2022/09/10 12:48:36;;;;;;;5.85;3.85;;;23.30;99.90;;;;;;4973647;28;20042;-73
2022/09/10 12:51:17;;;;;;;8.40;4.50;;;23.40;99.90;;;;;;4974757;28;20046;-73
2022/09/10 12:53:49;;;;;;;5.57;3.53;;;23.40;99.90;;;;;;4986800;28;20085;-72
2022/09/10 12:56:36;;;;;;;6.82;4.28;;;23.60;99.90;;;;;;4972671;28;20039;-73
2022/09/10 12:59:50;;;;;;;5.72;3.90;;;23.80;99.90;;;;;;4972012;28;20133;-72
2022/09/10 13:12:41;;;;;;;5.72;3.80;;;23.70;99.90;;;;;;5651959;23;20057;-75
2022/09/10 13:15:19;;;;;;;5.82;3.83;;;23.60;99.90;;;;;;4987544;28;20037;-74
2022/09/10 13:17:49;;;;;;;7.35;3.95;;;23.60;99.90;;;;;;4991490;28;20042;-75
2022/09/10 13:20:20;;;;;;;8.35;4.22;;;23.50;99.90;;;;;;4974265;28;20046;-73
2022/09/10 13:23:08;;;;;;;6.68;4.25;;;23.30;99.90;;;;;;4992069;28;20053;-76
2022/09/10 13:25:42;;;;;;;8.57;4.70;;;23.20;99.90;;;;;;5067321;22;20048;-74
2022/09/10 13:28:30;;;;;;;4.57;3.50;;;23.10;99.90;;;;;;5005903;28;20037;-73
2022/09/10 13:31:07;;;;;;;8.27;3.92;;;23.10;99.90;;;;;;5008608;28;20087;-73
2022/09/10 13:33:48;;;;;;;6.20;3.95;;;23.10;99.90;;;;;;5004336;28;20042;-73